sensor_id;sensor_type;location;lat;lon;timestamp;temperature;humidity
39665;DHT22;26679;50.872;4.332;2023-07-31T00:00:33;18.20;99.90
39665;DHT22;26679;50.872;4.332;2023-07-31T00:02:59;18.20;99.90
39665;DHT22;26679;50.872;4.332;2023-07-31T00:05:24;18.20;99.90
39665;DHT22;26679;50.872;4.332;2023-07-31T00:07:50;18.00;99.90
39665;DHT22;26679;50.872;4.332;2023-07-31T00:10:16;18.20;99.90
39665;DHT22;26679;50.872;4.332;2023-07-31T00:12:42;18.20;99.90
39665;DHT22;26679;50.872;4.332;2023-07-31T00:15:08;18.10;99.90
39665;DHT22;26679;50.872;4.332;2023-07-31T00:17:33;18.10;99.90
39665;DHT22;26679;50.872;4.332;2023-07-31T00:20:05;18.10;99.90
39665;DHT22;26679;50.872;4.332;2023-07-31T00:22:35;18.00;99.90
39665;DHT22;26679;50.872;4.332;2023-07-31T00:25:01;18.00;99.90
39665;DHT22;26679;50.872;4.332;2023-07-31T00:27:27;18.00;99.90
39665;DHT22;26679;50.872;4.332;2023-07-31T00:29:52;17.90;99.90
39665;DHT22;26679;50.872;4.332;2023-07-31T00:32:18;17.90;99.90
39665;DHT22;26679;50.872;4.332;2023-07-31T00:34:43;17.90;99.90
39665;DHT22;26679;50.872;4.332;2023-07-31T00:37:09;17.90;99.90
39665;DHT22;26679;50.872;4.332;2023-07-31T00:39:34;17.90;99.90
39665;DHT22;26679;50.872;4.332;2023-07-31T00:42:01;18.00;99.90
39665;DHT22;26679;50.872;4.332;2023-07-31T00:44:26;18.00;99.90
39665;DHT22;26679;50.872;4.332;2023-07-31T00:46:52;18.00;99.90
39665;DHT22;26679;50.872;4.332;2023-07-31T00:49:18;18.10;99.90
39665;DHT22;26679;50.872;4.332;2023-07-31T00:51:43;18.20;99.90
39665;DHT22;26679;50.872;4.332;2023-07-31T00:54:09;18.10;99.90
39665;DHT22;26679;50.872;4.332;2023-07-31T00:56:35;18.10;99.90
39665;DHT22;26679;50.872;4.332;2023-07-31T00:59:03;18.20;99.90
39665;DHT22;26679;50.872;4.332;2023-07-31T01:01:29;18.20;99.90
39665;DHT22;26679;50.872;4.332;2023-07-31T01:03:54;18.20;99.90
39665;DHT22;26679;50.872;4.332;2023-07-31T01:11:53;18.10;99.90
39665;DHT22;26679;50.872;4.332;2023-07-31T01:14:21;18.00;99.90
39665;DHT22;26679;50.872;4.332;2023-07-31T01:16:47;18.00;99.90
39665;DHT22;26679;50.872;4.332;2023-07-31T01:19:12;18.00;99.90
39665;DHT22;26679;50.872;4.332;2023-07-31T01:21:54;18.00;99.90
39665;DHT22;26679;50.872;4.332;2023-07-31T01:26:59;18.10;99.90
39665;DHT22;26679;50.872;4.332;2023-07-31T01:29:43;18.10;99.90
39665;DHT22;26679;50.872;4.332;2023-07-31T01:32:12;18.10;99.90
39665;DHT22;26679;50.872;4.332;2023-07-31T01:34:38;18.10;99.90
39665;DHT22;26679;50.872;4.332;2023-07-31T01:37:04;18.10;99.90
39665;DHT22;26679;50.872;4.332;2023-07-31T01:39:30;18.20;99.90
39665;DHT22;26679;50.872;4.332;2023-07-31T01:41:55;18.20;99.90
39665;DHT22;26679;50.872;4.332;2023-07-31T01:44:21;18.20;99.90
39665;DHT22;26679;50.872;4.332;2023-07-31T01:46:47;18.20;99.90
39665;DHT22;26679;50.872;4.332;2023-07-31T01:49:12;18.20;99.90
39665;DHT22;26679;50.872;4.332;2023-07-31T01:51:38;18.20;99.90
39665;DHT22;26679;50.872;4.332;2023-07-31T01:54:03;18.20;99.90
39665;DHT22;26679;50.872;4.332;2023-07-31T01:56:29;18.10;99.90
39665;DHT22;26679;50.872;4.332;2023-07-31T01:58:54;18.10;99.90
39665;DHT22;26679;50.872;4.332;2023-07-31T02:01:20;18.10;99.90
39665;DHT22;26679;50.872;4.332;2023-07-31T02:03:45;18.00;99.90
39665;DHT22;26679;50.872;4.332;2023-07-31T02:06:11;17.80;99.90
39665;DHT22;26679;50.872;4.332;2023-07-31T02:08:36;17.70;99.90
39665;DHT22;26679;50.872;4.332;2023-07-31T02:11:02;17.70;99.90
39665;DHT22;26679;50.872;4.332;2023-07-31T02:13:28;17.80;99.90
39665;DHT22;26679;50.872;4.332;2023-07-31T02:15:53;17.80;99.90
39665;DHT22;26679;50.872;4.332;2023-07-31T02:18:19;17.80;99.90
39665;DHT22;26679;50.872;4.332;2023-07-31T02:20:48;17.80;99.90
39665;DHT22;26679;50.872;4.332;2023-07-31T02:23:14;17.70;99.90
39665;DHT22;26679;50.872;4.332;2023-07-31T02:25:39;17.80;99.90
39665;DHT22;26679;50.872;4.332;2023-07-31T02:28:05;17.80;99.90
39665;DHT22;26679;50.872;4.332;2023-07-31T02:30:30;18.00;99.90
39665;DHT22;26679;50.872;4.332;2023-07-31T02:32:56;17.90;99.90
39665;DHT22;26679;50.872;4.332;2023-07-31T02:35:21;18.10;99.90
39665;DHT22;26679;50.872;4.332;2023-07-31T02:37:47;18.10;99.90
39665;DHT22;26679;50.872;4.332;2023-07-31T02:40:12;18.20;99.90
39665;DHT22;26679;50.872;4.332;2023-07-31T02:42:38;18.10;99.90
39665;DHT22;26679;50.872;4.332;2023-07-31T02:45:04;18.10;99.90
39665;DHT22;26679;50.872;4.332;2023-07-31T02:47:29;18.10;99.90
39665;DHT22;26679;50.872;4.332;2023-07-31T02:49:55;18.10;99.90
39665;DHT22;26679;50.872;4.332;2023-07-31T02:52:21;18.20;99.90
39665;DHT22;26679;50.872;4.332;2023-07-31T02:54:46;18.10;99.90
39665;DHT22;26679;50.872;4.332;2023-07-31T02:57:12;18.00;99.90
39665;DHT22;26679;50.872;4.332;2023-07-31T02:59:37;18.00;99.90
39665;DHT22;26679;50.872;4.332;2023-07-31T03:02:03;18.10;99.90
39665;DHT22;26679;50.872;4.332;2023-07-31T03:04:29;18.10;99.90
39665;DHT22;26679;50.872;4.332;2023-07-31T03:06:54;18.10;99.90
39665;DHT22;26679;50.872;4.332;2023-07-31T03:09:20;18.10;99.90
39665;DHT22;26679;50.872;4.332;2023-07-31T03:11:45;18.10;99.90
39665;DHT22;26679;50.872;4.332;2023-07-31T03:14:11;18.10;99.90
39665;DHT22;26679;50.872;4.332;2023-07-31T03:16:36;18.00;99.90
39665;DHT22;26679;50.872;4.332;2023-07-31T03:19:02;17.90;99.90
39665;DHT22;26679;50.872;4.332;2023-07-31T03:21:27;17.80;99.90
39665;DHT22;26679;50.872;4.332;2023-07-31T03:23:53;17.60;99.90
39665;DHT22;26679;50.872;4.332;2023-07-31T03:26:18;17.60;99.90
39665;DHT22;26679;50.872;4.332;2023-07-31T03:28:44;17.50;99.90
39665;DHT22;26679;50.872;4.332;2023-07-31T03:31:09;17.50;99.90
39665;DHT22;26679;50.872;4.332;2023-07-31T03:33:36;17.50;99.90
39665;DHT22;26679;50.872;4.332;2023-07-31T03:36:02;17.50;99.90
39665;DHT22;26679;50.872;4.332;2023-07-31T03:38:27;17.50;99.90
39665;DHT22;26679;50.872;4.332;2023-07-31T03:40:53;17.40;99.90
39665;DHT22;26679;50.872;4.332;2023-07-31T03:43:18;17.30;99.90
39665;DHT22;26679;50.872;4.332;2023-07-31T03:45:44;17.30;99.90
39665;DHT22;26679;50.872;4.332;2023-07-31T03:48:09;17.30;99.90
39665;DHT22;26679;50.872;4.332;2023-07-31T03:50:36;17.30;99.90
39665;DHT22;26679;50.872;4.332;2023-07-31T03:53:01;17.20;99.90
39665;DHT22;26679;50.872;4.332;2023-07-31T03:55:26;17.20;99.90
39665;DHT22;26679;50.872;4.332;2023-07-31T03:57:52;17.20;99.90
39665;DHT22;26679;50.872;4.332;2023-07-31T04:00:18;17.20;99.90
39665;DHT22;26679;50.872;4.332;2023-07-31T04:02:43;17.10;99.90
39665;DHT22;26679;50.872;4.332;2023-07-31T04:05:09;17.10;99.90
39665;DHT22;26679;50.872;4.332;2023-07-31T04:07:34;17.10;99.90
39665;DHT22;26679;50.872;4.332;2023-07-31T04:10:00;17.00;99.90
39665;DHT22;26679;50.872;4.332;2023-07-31T04:12:26;17.00;99.90
39665;DHT22;26679;50.872;4.332;2023-07-31T04:14:51;16.90;99.90
39665;DHT22;26679;50.872;4.332;2023-07-31T04:17:20;16.90;99.90
39665;DHT22;26679;50.872;4.332;2023-07-31T04:19:45;16.90;99.90
39665;DHT22;26679;50.872;4.332;2023-07-31T04:22:11;17.00;99.90
39665;DHT22;26679;50.872;4.332;2023-07-31T04:24:36;17.00;99.90
39665;DHT22;26679;50.872;4.332;2023-07-31T04:27:02;17.00;99.90
39665;DHT22;26679;50.872;4.332;2023-07-31T04:29:27;17.00;99.90
39665;DHT22;26679;50.872;4.332;2023-07-31T04:31:53;17.00;99.90
39665;DHT22;26679;50.872;4.332;2023-07-31T04:34:18;16.90;99.90
39665;DHT22;26679;50.872;4.332;2023-07-31T04:36:44;16.90;99.90
39665;DHT22;26679;50.872;4.332;2023-07-31T04:39:09;16.90;99.90
39665;DHT22;26679;50.872;4.332;2023-07-31T04:41:35;16.90;99.90
39665;DHT22;26679;50.872;4.332;2023-07-31T04:44:00;16.90;99.90
39665;DHT22;26679;50.872;4.332;2023-07-31T04:46:26;16.90;99.90
39665;DHT22;26679;50.872;4.332;2023-07-31T04:48:52;16.90;99.90
39665;DHT22;26679;50.872;4.332;2023-07-31T04:51:17;17.10;99.90
39665;DHT22;26679;50.872;4.332;2023-07-31T04:53:43;17.20;99.90
39665;DHT22;26679;50.872;4.332;2023-07-31T04:56:08;17.30;99.90
39665;DHT22;26679;50.872;4.332;2023-07-31T04:58:33;17.30;99.90
39665;DHT22;26679;50.872;4.332;2023-07-31T05:00:59;17.30;99.90
39665;DHT22;26679;50.872;4.332;2023-07-31T05:03:25;17.30;99.90
39665;DHT22;26679;50.872;4.332;2023-07-31T05:05:51;17.20;99.90
39665;DHT22;26679;50.872;4.332;2023-07-31T05:08:16;17.10;99.90
39665;DHT22;26679;50.872;4.332;2023-07-31T05:10:43;17.10;99.90
39665;DHT22;26679;50.872;4.332;2023-07-31T05:13:08;17.00;99.90
39665;DHT22;26679;50.872;4.332;2023-07-31T05:15:34;17.00;99.90
39665;DHT22;26679;50.872;4.332;2023-07-31T05:17:59;16.90;99.90
39665;DHT22;26679;50.872;4.332;2023-07-31T05:20:25;16.80;99.90
39665;DHT22;26679;50.872;4.332;2023-07-31T05:22:50;16.80;99.90
39665;DHT22;26679;50.872;4.332;2023-07-31T05:25:16;16.80;99.90
39665;DHT22;26679;50.872;4.332;2023-07-31T05:27:42;16.80;99.90
39665;DHT22;26679;50.872;4.332;2023-07-31T05:30:07;16.70;99.90
39665;DHT22;26679;50.872;4.332;2023-07-31T05:32:33;16.60;99.90
39665;DHT22;26679;50.872;4.332;2023-07-31T05:34:58;16.50;99.90
39665;DHT22;26679;50.872;4.332;2023-07-31T05:37:24;16.50;99.90
39665;DHT22;26679;50.872;4.332;2023-07-31T05:39:50;16.60;99.90
39665;DHT22;26679;50.872;4.332;2023-07-31T05:42:16;16.60;99.90
39665;DHT22;26679;50.872;4.332;2023-07-31T05:44:42;16.60;99.90
39665;DHT22;26679;50.872;4.332;2023-07-31T05:47:07;16.60;99.90
39665;DHT22;26679;50.872;4.332;2023-07-31T05:49:33;16.60;99.90
39665;DHT22;26679;50.872;4.332;2023-07-31T05:51:59;16.70;99.90
39665;DHT22;26679;50.872;4.332;2023-07-31T05:54:24;16.70;99.90
39665;DHT22;26679;50.872;4.332;2023-07-31T05:56:50;16.70;99.90
39665;DHT22;26679;50.872;4.332;2023-07-31T05:59:15;16.80;99.90
39665;DHT22;26679;50.872;4.332;2023-07-31T06:01:41;16.70;99.90
39665;DHT22;26679;50.872;4.332;2023-07-31T06:04:07;16.70;99.90
39665;DHT22;26679;50.872;4.332;2023-07-31T06:06:32;16.80;99.90
39665;DHT22;26679;50.872;4.332;2023-07-31T06:08:58;16.70;99.90
39665;DHT22;26679;50.872;4.332;2023-07-31T06:11:23;16.80;99.90
39665;DHT22;26679;50.872;4.332;2023-07-31T06:13:49;16.80;99.90
39665;DHT22;26679;50.872;4.332;2023-07-31T06:16:15;16.90;99.90
39665;DHT22;26679;50.872;4.332;2023-07-31T06:18:41;17.00;99.90
39665;DHT22;26679;50.872;4.332;2023-07-31T06:21:07;17.10;99.90
39665;DHT22;26679;50.872;4.332;2023-07-31T06:23:32;17.20;99.90
39665;DHT22;26679;50.872;4.332;2023-07-31T06:25:58;17.20;99.90
39665;DHT22;26679;50.872;4.332;2023-07-31T06:28:30;17.30;99.90
39665;DHT22;26679;50.872;4.332;2023-07-31T06:30:56;17.30;99.90
39665;DHT22;26679;50.872;4.332;2023-07-31T06:33:22;17.30;99.90
39665;DHT22;26679;50.872;4.332;2023-07-31T06:35:48;17.30;99.90
39665;DHT22;26679;50.872;4.332;2023-07-31T06:38:13;17.40;99.90
39665;DHT22;26679;50.872;4.332;2023-07-31T06:40:39;17.40;99.90
39665;DHT22;26679;50.872;4.332;2023-07-31T06:43:05;17.40;99.90
39665;DHT22;26679;50.872;4.332;2023-07-31T06:45:33;17.50;99.90
39665;DHT22;26679;50.872;4.332;2023-07-31T06:48:00;17.50;99.90
39665;DHT22;26679;50.872;4.332;2023-07-31T06:50:27;17.60;99.90
39665;DHT22;26679;50.872;4.332;2023-07-31T06:52:53;17.70;99.90
39665;DHT22;26679;50.872;4.332;2023-07-31T06:55:19;17.80;99.90
39665;DHT22;26679;50.872;4.332;2023-07-31T06:57:47;17.80;99.90
39665;DHT22;26679;50.872;4.332;2023-07-31T07:00:12;17.80;99.90
39665;DHT22;26679;50.872;4.332;2023-07-31T07:02:38;17.90;99.90
39665;DHT22;26679;50.872;4.332;2023-07-31T07:05:04;18.00;99.90
39665;DHT22;26679;50.872;4.332;2023-07-31T07:07:29;18.10;99.90
39665;DHT22;26679;50.872;4.332;2023-07-31T07:09:55;18.10;99.90
39665;DHT22;26679;50.872;4.332;2023-07-31T07:12:20;18.20;99.90
39665;DHT22;26679;50.872;4.332;2023-07-31T07:14:46;18.10;99.90
39665;DHT22;26679;50.872;4.332;2023-07-31T07:17:13;18.10;99.90
39665;DHT22;26679;50.872;4.332;2023-07-31T07:19:41;18.20;99.90
39665;DHT22;26679;50.872;4.332;2023-07-31T07:22:07;18.10;99.90
39665;DHT22;26679;50.872;4.332;2023-07-31T07:24:33;18.10;99.90
39665;DHT22;26679;50.872;4.332;2023-07-31T07:27:00;18.10;99.90
39665;DHT22;26679;50.872;4.332;2023-07-31T07:29:25;18.10;99.90
39665;DHT22;26679;50.872;4.332;2023-07-31T07:31:51;18.20;99.90
39665;DHT22;26679;50.872;4.332;2023-07-31T07:34:17;18.10;99.90
39665;DHT22;26679;50.872;4.332;2023-07-31T07:36:42;18.10;99.90
39665;DHT22;26679;50.872;4.332;2023-07-31T07:39:09;18.10;99.90
39665;DHT22;26679;50.872;4.332;2023-07-31T07:41:36;18.10;99.90
39665;DHT22;26679;50.872;4.332;2023-07-31T07:44:01;18.20;99.90
39665;DHT22;26679;50.872;4.332;2023-07-31T07:46:27;18.30;99.90
39665;DHT22;26679;50.872;4.332;2023-07-31T07:48:52;18.20;99.90
39665;DHT22;26679;50.872;4.332;2023-07-31T07:51:18;18.00;99.90
39665;DHT22;26679;50.872;4.332;2023-07-31T07:53:44;18.00;99.90
39665;DHT22;26679;50.872;4.332;2023-07-31T07:56:09;18.00;99.90
39665;DHT22;26679;50.872;4.332;2023-07-31T07:58:35;18.10;99.90
39665;DHT22;26679;50.872;4.332;2023-07-31T08:01:00;18.30;99.90
39665;DHT22;26679;50.872;4.332;2023-07-31T08:03:26;18.40;99.90
39665;DHT22;26679;50.872;4.332;2023-07-31T08:05:51;18.40;99.90
39665;DHT22;26679;50.872;4.332;2023-07-31T08:08:17;18.40;99.90
39665;DHT22;26679;50.872;4.332;2023-07-31T08:10:43;18.40;99.90
39665;DHT22;26679;50.872;4.332;2023-07-31T08:13:11;18.40;99.90
39665;DHT22;26679;50.872;4.332;2023-07-31T08:15:37;18.50;99.90
39665;DHT22;26679;50.872;4.332;2023-07-31T08:18:02;18.50;99.90
39665;DHT22;26679;50.872;4.332;2023-07-31T08:20:28;18.50;99.90
39665;DHT22;26679;50.872;4.332;2023-07-31T08:22:53;18.40;99.90
39665;DHT22;26679;50.872;4.332;2023-07-31T08:25:19;18.30;99.90
39665;DHT22;26679;50.872;4.332;2023-07-31T08:27:45;18.40;99.90
39665;DHT22;26679;50.872;4.332;2023-07-31T08:30:11;18.30;99.90
39665;DHT22;26679;50.872;4.332;2023-07-31T08:32:37;18.20;99.90
39665;DHT22;26679;50.872;4.332;2023-07-31T08:35:02;18.10;99.90
39665;DHT22;26679;50.872;4.332;2023-07-31T08:37:28;18.10;99.90
39665;DHT22;26679;50.872;4.332;2023-07-31T08:39:53;18.30;99.90
39665;DHT22;26679;50.872;4.332;2023-07-31T08:42:20;18.40;99.90
39665;DHT22;26679;50.872;4.332;2023-07-31T08:44:46;18.30;99.90
39665;DHT22;26679;50.872;4.332;2023-07-31T08:47:11;18.20;99.90
39665;DHT22;26679;50.872;4.332;2023-07-31T08:49:37;18.20;99.90
39665;DHT22;26679;50.872;4.332;2023-07-31T08:52:03;18.30;99.90
39665;DHT22;26679;50.872;4.332;2023-07-31T08:54:29;18.40;99.90
39665;DHT22;26679;50.872;4.332;2023-07-31T08:56:56;18.40;99.90
39665;DHT22;26679;50.872;4.332;2023-07-31T08:59:22;18.50;99.90
39665;DHT22;26679;50.872;4.332;2023-07-31T09:01:50;18.50;99.90
39665;DHT22;26679;50.872;4.332;2023-07-31T09:04:16;18.40;99.90
39665;DHT22;26679;50.872;4.332;2023-07-31T09:06:42;18.20;99.90
39665;DHT22;26679;50.872;4.332;2023-07-31T09:09:08;18.50;99.90
39665;DHT22;26679;50.872;4.332;2023-07-31T09:11:34;18.50;99.90
39665;DHT22;26679;50.872;4.332;2023-07-31T09:14:00;18.50;99.90
39665;DHT22;26679;50.872;4.332;2023-07-31T09:16:30;18.40;99.90
39665;DHT22;26679;50.872;4.332;2023-07-31T09:18:57;18.50;99.90
39665;DHT22;26679;50.872;4.332;2023-07-31T09:21:23;18.50;99.90
39665;DHT22;26679;50.872;4.332;2023-07-31T09:23:49;18.60;99.90
39665;DHT22;26679;50.872;4.332;2023-07-31T09:26:35;18.50;99.90
39665;DHT22;26679;50.872;4.332;2023-07-31T09:29:03;18.60;99.90
39665;DHT22;26679;50.872;4.332;2023-07-31T09:31:47;18.40;99.90
39665;DHT22;26679;50.872;4.332;2023-07-31T09:34:12;18.30;99.90
39665;DHT22;26679;50.872;4.332;2023-07-31T09:36:44;18.10;99.90
39665;DHT22;26679;50.872;4.332;2023-07-31T09:39:11;18.10;99.90
39665;DHT22;26679;50.872;4.332;2023-07-31T09:41:39;18.00;99.90
39665;DHT22;26679;50.872;4.332;2023-07-31T09:44:06;18.00;99.90
39665;DHT22;26679;50.872;4.332;2023-07-31T09:46:31;18.00;99.90
39665;DHT22;26679;50.872;4.332;2023-07-31T09:49:06;17.90;99.90
39665;DHT22;26679;50.872;4.332;2023-07-31T09:51:32;17.90;99.90
39665;DHT22;26679;50.872;4.332;2023-07-31T09:54:03;18.00;99.90
39665;DHT22;26679;50.872;4.332;2023-07-31T09:56:29;18.00;99.90
39665;DHT22;26679;50.872;4.332;2023-07-31T09:58:55;18.00;99.90
39665;DHT22;26679;50.872;4.332;2023-07-31T10:01:21;18.00;99.90
39665;DHT22;26679;50.872;4.332;2023-07-31T10:03:48;18.00;99.90
39665;DHT22;26679;50.872;4.332;2023-07-31T10:06:14;17.90;99.90
39665;DHT22;26679;50.872;4.332;2023-07-31T10:08:41;17.90;99.90
39665;DHT22;26679;50.872;4.332;2023-07-31T10:11:08;17.90;99.90
39665;DHT22;26679;50.872;4.332;2023-07-31T10:13:34;18.00;99.90
39665;DHT22;26679;50.872;4.332;2023-07-31T10:16:00;18.00;99.90
39665;DHT22;26679;50.872;4.332;2023-07-31T10:18:26;18.00;99.90
39665;DHT22;26679;50.872;4.332;2023-07-31T10:20:53;18.20;99.90
39665;DHT22;26679;50.872;4.332;2023-07-31T10:23:19;18.20;99.90
39665;DHT22;26679;50.872;4.332;2023-07-31T10:25:45;18.20;99.90
39665;DHT22;26679;50.872;4.332;2023-07-31T10:28:12;18.20;99.90
39665;DHT22;26679;50.872;4.332;2023-07-31T10:30:38;18.30;99.90
39665;DHT22;26679;50.872;4.332;2023-07-31T10:33:06;18.30;99.90
39665;DHT22;26679;50.872;4.332;2023-07-31T10:35:32;18.40;99.90
39665;DHT22;26679;50.872;4.332;2023-07-31T10:38:10;18.40;99.90
39665;DHT22;26679;50.872;4.332;2023-07-31T10:40:37;18.40;99.90
39665;DHT22;26679;50.872;4.332;2023-07-31T10:43:02;18.40;99.90
39665;DHT22;26679;50.872;4.332;2023-07-31T10:45:32;18.40;99.90
39665;DHT22;26679;50.872;4.332;2023-07-31T10:50:36;18.90;99.90
39665;DHT22;26679;50.872;4.332;2023-07-31T10:53:02;18.90;99.90
39665;DHT22;26679;50.872;4.332;2023-07-31T10:55:41;19.00;99.90
39665;DHT22;26679;50.872;4.332;2023-07-31T10:58:08;19.10;99.90
39665;DHT22;26679;50.872;4.332;2023-07-31T11:00:36;19.30;99.90
39665;DHT22;26679;50.872;4.332;2023-07-31T11:03:03;19.40;99.90
39665;DHT22;26679;50.872;4.332;2023-07-31T11:08:10;19.40;99.90
39665;DHT22;26679;50.872;4.332;2023-07-31T11:10:36;19.30;99.90
39665;DHT22;26679;50.872;4.332;2023-07-31T11:13:03;19.30;99.90
39665;DHT22;26679;50.872;4.332;2023-07-31T11:15:29;19.30;99.90
39665;DHT22;26679;50.872;4.332;2023-07-31T11:17:55;19.50;99.90
39665;DHT22;26679;50.872;4.332;2023-07-31T11:20:26;19.60;99.90
39665;DHT22;26679;50.872;4.332;2023-07-31T11:22:52;19.70;99.90
39665;DHT22;26679;50.872;4.332;2023-07-31T11:25:18;19.60;99.90
39665;DHT22;26679;50.872;4.332;2023-07-31T11:27:43;19.60;99.90
39665;DHT22;26679;50.872;4.332;2023-07-31T11:30:09;19.70;99.90
39665;DHT22;26679;50.872;4.332;2023-07-31T11:32:38;19.70;99.90
39665;DHT22;26679;50.872;4.332;2023-07-31T11:35:03;19.70;99.90
39665;DHT22;26679;50.872;4.332;2023-07-31T11:37:43;19.80;99.90
39665;DHT22;26679;50.872;4.332;2023-07-31T11:40:09;19.70;99.90
39665;DHT22;26679;50.872;4.332;2023-07-31T11:42:35;19.70;99.90
39665;DHT22;26679;50.872;4.332;2023-07-31T11:45:04;19.80;99.90
39665;DHT22;26679;50.872;4.332;2023-07-31T11:47:32;19.80;99.90
39665;DHT22;26679;50.872;4.332;2023-07-31T11:49:59;19.90;99.90
39665;DHT22;26679;50.872;4.332;2023-07-31T11:52:25;19.70;99.90
39665;DHT22;26679;50.872;4.332;2023-07-31T11:54:51;19.60;99.90
39665;DHT22;26679;50.872;4.332;2023-07-31T11:57:17;19.50;99.90
39665;DHT22;26679;50.872;4.332;2023-07-31T11:59:43;19.60;99.90
39665;DHT22;26679;50.872;4.332;2023-07-31T12:02:09;19.60;99.90
39665;DHT22;26679;50.872;4.332;2023-07-31T12:04:35;19.70;99.90
39665;DHT22;26679;50.872;4.332;2023-07-31T12:07:01;20.00;99.90
39665;DHT22;26679;50.872;4.332;2023-07-31T12:09:26;20.20;99.90
39665;DHT22;26679;50.872;4.332;2023-07-31T12:11:52;20.30;99.90
39665;DHT22;26679;50.872;4.332;2023-07-31T12:14:19;20.30;99.90
39665;DHT22;26679;50.872;4.332;2023-07-31T12:16:45;20.20;99.90
39665;DHT22;26679;50.872;4.332;2023-07-31T12:19:10;20.20;99.90
39665;DHT22;26679;50.872;4.332;2023-07-31T12:21:37;20.20;99.90
39665;DHT22;26679;50.872;4.332;2023-07-31T12:24:03;20.20;99.90
39665;DHT22;26679;50.872;4.332;2023-07-31T12:26:33;20.20;99.90
39665;DHT22;26679;50.872;4.332;2023-07-31T12:28:59;20.40;99.90
39665;DHT22;26679;50.872;4.332;2023-07-31T12:31:25;20.30;99.90
39665;DHT22;26679;50.872;4.332;2023-07-31T12:33:52;20.30;99.90
39665;DHT22;26679;50.872;4.332;2023-07-31T12:36:21;20.30;99.90
39665;DHT22;26679;50.872;4.332;2023-07-31T12:38:47;20.40;99.90
39665;DHT22;26679;50.872;4.332;2023-07-31T12:41:15;20.40;99.90
39665;DHT22;26679;50.872;4.332;2023-07-31T12:43:40;20.50;99.90
39665;DHT22;26679;50.872;4.332;2023-07-31T12:46:06;20.60;99.90
39665;DHT22;26679;50.872;4.332;2023-07-31T12:48:35;20.90;99.90
39665;DHT22;26679;50.872;4.332;2023-07-31T12:51:01;21.30;99.90
39665;DHT22;26679;50.872;4.332;2023-07-31T12:53:27;21.40;99.90
39665;DHT22;26679;50.872;4.332;2023-07-31T12:55:52;21.40;99.90
39665;DHT22;26679;50.872;4.332;2023-07-31T12:58:18;21.40;99.90
39665;DHT22;26679;50.872;4.332;2023-07-31T13:00:43;21.00;99.90
39665;DHT22;26679;50.872;4.332;2023-07-31T13:03:09;20.80;99.90
39665;DHT22;26679;50.872;4.332;2023-07-31T13:05:34;20.70;99.90
39665;DHT22;26679;50.872;4.332;2023-07-31T13:08:00;20.50;99.90
39665;DHT22;26679;50.872;4.332;2023-07-31T13:10:26;20.50;99.90
39665;DHT22;26679;50.872;4.332;2023-07-31T13:12:52;20.40;99.90
39665;DHT22;26679;50.872;4.332;2023-07-31T13:15:18;20.30;99.90
39665;DHT22;26679;50.872;4.332;2023-07-31T13:17:43;20.10;99.90
39665;DHT22;26679;50.872;4.332;2023-07-31T13:20:11;20.00;99.90
39665;DHT22;26679;50.872;4.332;2023-07-31T13:22:37;19.90;99.90
39665;DHT22;26679;50.872;4.332;2023-07-31T13:25:02;19.70;99.90
39665;DHT22;26679;50.872;4.332;2023-07-31T13:27:28;19.60;99.90
39665;DHT22;26679;50.872;4.332;2023-07-31T13:29:54;19.40;99.90
39665;DHT22;26679;50.872;4.332;2023-07-31T13:32:19;19.20;99.90
39665;DHT22;26679;50.872;4.332;2023-07-31T13:34:45;18.90;99.90
39665;DHT22;26679;50.872;4.332;2023-07-31T13:37:11;18.80;99.90
39665;DHT22;26679;50.872;4.332;2023-07-31T13:39:36;18.80;99.90
39665;DHT22;26679;50.872;4.332;2023-07-31T13:42:02;18.60;99.90
39665;DHT22;26679;50.872;4.332;2023-07-31T13:44:28;18.50;99.90
39665;DHT22;26679;50.872;4.332;2023-07-31T13:46:54;18.60;99.90
39665;DHT22;26679;50.872;4.332;2023-07-31T13:49:19;18.50;99.90
39665;DHT22;26679;50.872;4.332;2023-07-31T13:51:45;18.40;99.90
39665;DHT22;26679;50.872;4.332;2023-07-31T13:54:11;18.40;99.90
39665;DHT22;26679;50.872;4.332;2023-07-31T13:56:37;18.30;99.90
39665;DHT22;26679;50.872;4.332;2023-07-31T13:59:02;18.30;99.90
39665;DHT22;26679;50.872;4.332;2023-07-31T14:03:58;18.20;99.90
39665;DHT22;26679;50.872;4.332;2023-07-31T14:06:23;18.30;99.90
39665;DHT22;26679;50.872;4.332;2023-07-31T14:08:49;18.30;99.90
39665;DHT22;26679;50.872;4.332;2023-07-31T14:11:14;18.20;99.90
39665;DHT22;26679;50.872;4.332;2023-07-31T14:13:40;18.30;99.90
39665;DHT22;26679;50.872;4.332;2023-07-31T14:16:06;18.30;99.90
39665;DHT22;26679;50.872;4.332;2023-07-31T14:18:31;18.30;99.90
39665;DHT22;26679;50.872;4.332;2023-07-31T14:20:57;18.30;99.90
39665;DHT22;26679;50.872;4.332;2023-07-31T14:23:22;18.20;99.90
39665;DHT22;26679;50.872;4.332;2023-07-31T14:25:48;18.20;99.90
39665;DHT22;26679;50.872;4.332;2023-07-31T14:28:14;18.20;99.90
39665;DHT22;26679;50.872;4.332;2023-07-31T14:30:39;18.10;99.90
39665;DHT22;26679;50.872;4.332;2023-07-31T14:33:05;18.10;99.90
39665;DHT22;26679;50.872;4.332;2023-07-31T14:35:30;18.20;99.90
39665;DHT22;26679;50.872;4.332;2023-07-31T14:37:56;18.10;99.90
39665;DHT22;26679;50.872;4.332;2023-07-31T14:40:21;18.10;99.90
39665;DHT22;26679;50.872;4.332;2023-07-31T14:42:47;18.10;99.90
39665;DHT22;26679;50.872;4.332;2023-07-31T14:45:13;18.10;99.90
39665;DHT22;26679;50.872;4.332;2023-07-31T14:47:38;18.00;99.90
39665;DHT22;26679;50.872;4.332;2023-07-31T14:50:04;18.00;99.90
39665;DHT22;26679;50.872;4.332;2023-07-31T14:52:31;18.00;99.90
39665;DHT22;26679;50.872;4.332;2023-07-31T14:54:56;18.00;99.90
39665;DHT22;26679;50.872;4.332;2023-07-31T14:57:23;18.00;99.90
39665;DHT22;26679;50.872;4.332;2023-07-31T14:59:49;18.00;99.90
39665;DHT22;26679;50.872;4.332;2023-07-31T15:07:25;18.00;99.90
39665;DHT22;26679;50.872;4.332;2023-07-31T15:09:51;17.90;99.90
39665;DHT22;26679;50.872;4.332;2023-07-31T15:12:16;18.00;99.90
39665;DHT22;26679;50.872;4.332;2023-07-31T15:14:42;18.00;99.90
39665;DHT22;26679;50.872;4.332;2023-07-31T15:17:08;18.00;99.90
39665;DHT22;26679;50.872;4.332;2023-07-31T15:19:33;18.00;99.90
39665;DHT22;26679;50.872;4.332;2023-07-31T15:22:05;18.00;99.90
39665;DHT22;26679;50.872;4.332;2023-07-31T15:24:31;18.00;99.90
39665;DHT22;26679;50.872;4.332;2023-07-31T15:26:56;18.10;99.90
39665;DHT22;26679;50.872;4.332;2023-07-31T15:29:22;18.00;99.90
39665;DHT22;26679;50.872;4.332;2023-07-31T15:31:48;18.00;99.90
39665;DHT22;26679;50.872;4.332;2023-07-31T15:34:13;18.10;99.90
39665;DHT22;26679;50.872;4.332;2023-07-31T15:36:39;18.00;99.90
39665;DHT22;26679;50.872;4.332;2023-07-31T15:39:05;18.00;99.90
39665;DHT22;26679;50.872;4.332;2023-07-31T15:41:33;18.00;99.90
39665;DHT22;26679;50.872;4.332;2023-07-31T15:43:59;18.00;99.90